createdAt,value
2018-03-18T00:00:31.532Z,36.40
2018-03-18T00:01:03.275Z,36.30
2018-03-18T00:01:35.008Z,36.20
2018-03-18T00:02:06.747Z,36.20
2018-03-18T00:02:38.486Z,36.20
2018-03-18T00:03:10.228Z,36.20
2018-03-18T00:03:41.977Z,36.20
2018-03-18T00:04:13.725Z,36.40
2018-03-18T00:04:45.464Z,36.20
2018-03-18T00:05:17.201Z,36.10
2018-03-18T00:05:48.948Z,36.10
2018-03-18T00:06:20.689Z,36.10
2018-03-18T00:06:52.435Z,36.30
2018-03-18T00:07:24.199Z,36.10
2018-03-18T00:07:56.735Z,36.00
2018-03-18T00:08:28.528Z,36.00
2018-03-18T00:09:00.416Z,35.90
2018-03-18T00:09:32.155Z,36.00
2018-03-18T00:10:03.903Z,36.00
2018-03-18T00:10:35.643Z,36.00
2018-03-18T00:11:07.415Z,36.00
2018-03-18T00:11:39.133Z,36.00
2018-03-18T00:12:10.885Z,36.00
2018-03-18T00:12:42.607Z,36.00
2018-03-18T00:13:14.369Z,36.00
2018-03-18T00:13:46.123Z,36.00
2018-03-18T00:14:17.858Z,36.00
2018-03-18T00:14:49.602Z,36.00
2018-03-18T00:15:21.344Z,36.00
2018-03-18T00:15:53.072Z,36.00
2018-03-18T00:16:24.828Z,36.00
2018-03-18T00:16:56.636Z,36.00
2018-03-18T00:17:28.408Z,35.90
2018-03-18T00:18:00.129Z,36.00
2018-03-18T00:18:32.636Z,36.00
2018-03-18T00:19:04.371Z,36.00
2018-03-18T00:19:36.139Z,36.10
2018-03-18T00:20:08.144Z,36.00
2018-03-18T00:20:40.668Z,36.00
2018-03-18T00:21:12.428Z,36.00
2018-03-18T00:21:44.164Z,35.90
2018-03-18T00:22:15.953Z,36.00
2018-03-18T00:22:48.451Z,35.90
2018-03-18T00:23:20.192Z,35.80
2018-03-18T00:23:52.200Z,36.00
2018-03-18T00:24:24.713Z,36.10
2018-03-18T00:24:56.461Z,36.00
2018-03-18T00:25:28.208Z,36.10
2018-03-18T00:25:59.946Z,36.00
2018-03-18T00:26:31.703Z,35.90
2018-03-18T00:27:03.441Z,36.00
2018-03-18T00:27:35.187Z,36.10
2018-03-18T00:28:07.128Z,36.20
2018-03-18T00:28:38.871Z,36.30
2018-03-18T00:29:10.621Z,36.30
2018-03-18T00:29:42.368Z,36.20
2018-03-18T00:30:14.100Z,36.20
2018-03-18T00:30:45.847Z,36.30
2018-03-18T00:31:17.626Z,36.30
2018-03-18T00:31:49.552Z,36.10
2018-03-18T00:32:21.548Z,36.10
2018-03-18T00:32:53.431Z,36.20
2018-03-18T00:33:25.189Z,36.00
2018-03-18T00:33:56.974Z,36.00
2018-03-18T00:34:28.873Z,35.90
2018-03-18T00:35:00.631Z,35.90
2018-03-18T00:35:32.569Z,35.80
2018-03-18T00:36:04.325Z,35.80
2018-03-18T00:36:36.070Z,35.80
2018-03-18T00:37:07.820Z,36.00
2018-03-18T00:37:39.583Z,35.80
2018-03-18T00:38:11.500Z,35.90
2018-03-18T00:38:43.236Z,36.00
2018-03-18T00:39:14.974Z,36.00
2018-03-18T00:39:46.720Z,36.20
2018-03-18T00:40:18.494Z,36.20
2018-03-18T00:40:50.408Z,36.00
2018-03-18T00:41:22.160Z,36.10
2018-03-18T00:41:53.913Z,36.00
2018-03-18T00:42:25.643Z,36.10
2018-03-18T00:42:57.385Z,36.20
2018-03-18T00:43:29.333Z,36.10
2018-03-18T00:44:01.068Z,36.10
2018-03-18T00:44:32.815Z,36.10
2018-03-18T00:45:04.554Z,36.10
2018-03-18T00:45:36.291Z,36.00
2018-03-18T00:46:08.045Z,36.50
2018-03-18T00:46:39.796Z,36.00
2018-03-18T00:47:11.548Z,36.10
2018-03-18T00:47:43.473Z,36.10
2018-03-18T00:48:15.212Z,36.10
2018-03-18T00:48:46.944Z,36.00
2018-03-18T00:49:19.447Z,36.30
2018-03-18T00:49:51.192Z,36.20
2018-03-18T00:50:22.961Z,36.20
2018-03-18T00:50:54.697Z,36.20
2018-03-18T00:51:26.460Z,36.20
2018-03-18T00:51:58.201Z,36.10
2018-03-18T00:52:29.940Z,36.30
2018-03-18T00:53:01.680Z,36.00
2018-03-18T00:53:33.411Z,36.00
2018-03-18T00:54:05.160Z,36.00
2018-03-18T00:54:36.901Z,36.00
2018-03-18T00:55:08.640Z,36.10
2018-03-18T00:55:40.416Z,36.70
2018-03-18T00:56:12.133Z,36.00
2018-03-18T00:56:43.885Z,36.00
2018-03-18T00:57:15.627Z,36.10
2018-03-18T00:57:47.369Z,36.30
2018-03-18T00:58:19.112Z,36.20
2018-03-18T00:58:50.849Z,36.60
2018-03-18T00:59:22.592Z,35.90
2018-03-18T00:59:54.329Z,35.90
2018-03-18T01:00:26.125Z,35.80
2018-03-18T01:00:57.840Z,35.90
2018-03-18T01:01:29.605Z,35.90
2018-03-18T01:02:01.350Z,35.80
2018-03-18T01:02:33.092Z,35.80
2018-03-18T01:03:04.883Z,35.80
2018-03-18T01:03:37.360Z,35.90
2018-03-18T01:04:09.112Z,35.80
2018-03-18T01:04:40.835Z,35.80
2018-03-18T01:05:12.578Z,35.70
2018-03-18T01:05:44.340Z,35.80
2018-03-18T01:06:16.087Z,35.90
2018-03-18T01:06:47.820Z,35.90
2018-03-18T01:07:19.561Z,35.80
2018-03-18T01:07:52.336Z,35.90
2018-03-18T01:08:24.086Z,35.90
2018-03-18T01:08:55.941Z,35.80
2018-03-18T01:09:27.710Z,35.90
2018-03-18T01:09:59.471Z,35.80
2018-03-18T01:10:31.234Z,35.90
2018-03-18T01:11:03.741Z,35.90
2018-03-18T01:11:35.472Z,35.90
2018-03-18T01:12:07.213Z,35.90
2018-03-18T01:12:38.955Z,35.70
2018-03-18T01:13:10.688Z,35.60
2018-03-18T01:13:42.428Z,35.70
2018-03-18T01:14:14.169Z,35.60
2018-03-18T01:14:45.912Z,35.60
2018-03-18T01:15:18.424Z,35.70
2018-03-18T01:15:50.163Z,35.70
2018-03-18T01:16:21.903Z,35.70
2018-03-18T01:16:53.645Z,35.80
2018-03-18T01:17:25.391Z,35.70
2018-03-18T01:17:57.130Z,35.80
2018-03-18T01:18:28.868Z,35.90
2018-03-18T01:19:01.611Z,35.80
2018-03-18T01:19:33.598Z,35.80
2018-03-18T01:20:05.341Z,35.80
2018-03-18T01:20:37.076Z,35.70
2018-03-18T01:21:08.871Z,35.50
2018-03-18T01:21:40.585Z,35.50
2018-03-18T01:22:13.168Z,35.60
2018-03-18T01:22:44.917Z,35.70
2018-03-18T01:23:16.654Z,35.60
2018-03-18T01:23:48.428Z,35.40
2018-03-18T01:24:20.945Z,35.40
2018-03-18T01:24:52.692Z,35.40
2018-03-18T01:25:24.429Z,35.60
2018-03-18T01:25:56.168Z,35.50
2018-03-18T01:26:27.912Z,35.50
2018-03-18T01:26:59.654Z,35.40
2018-03-18T01:27:31.396Z,35.40
2018-03-18T01:28:03.140Z,35.50
2018-03-18T01:28:34.878Z,35.50
2018-03-18T01:29:06.618Z,35.40
2018-03-18T01:29:38.354Z,35.40
2018-03-18T01:30:10.103Z,35.40
2018-03-18T01:30:41.842Z,35.40
2018-03-18T01:31:13.627Z,35.40
2018-03-18T01:31:45.367Z,35.60
2018-03-18T01:32:17.117Z,35.60
2018-03-18T01:32:48.885Z,35.70
2018-03-18T01:33:20.596Z,35.70
2018-03-18T01:33:52.343Z,35.60
2018-03-18T01:34:24.087Z,35.50
2018-03-18T01:34:55.821Z,35.80
2018-03-18T01:35:27.585Z,35.90
2018-03-18T01:35:59.315Z,35.80
2018-03-18T01:36:31.037Z,35.80
2018-03-18T01:37:02.779Z,35.60
2018-03-18T01:37:34.508Z,35.50
2018-03-18T01:38:06.272Z,35.80
2018-03-18T01:38:38.041Z,35.70
2018-03-18T01:39:09.882Z,35.70
2018-03-18T01:39:41.611Z,35.50
2018-03-18T01:40:13.540Z,35.40
2018-03-18T01:40:45.293Z,35.50
2018-03-18T01:41:17.037Z,35.50
2018-03-18T01:41:48.983Z,35.40
2018-03-18T01:42:20.725Z,35.40
2018-03-18T01:42:52.467Z,35.50
2018-03-18T01:43:24.228Z,35.40
2018-03-18T01:43:55.957Z,35.30
2018-03-18T01:44:27.696Z,35.30
2018-03-18T01:44:59.436Z,35.30
2018-03-18T01:45:31.197Z,35.50
2018-03-18T01:46:02.942Z,35.30
2018-03-18T01:46:34.681Z,35.20
2018-03-18T01:47:06.427Z,35.30
2018-03-18T01:47:38.180Z,35.30
2018-03-18T01:48:09.902Z,35.40
2018-03-18T01:48:41.646Z,35.30
2018-03-18T01:49:14.354Z,35.40
2018-03-18T01:49:46.103Z,35.30
2018-03-18T01:50:17.842Z,35.30
2018-03-18T01:50:49.596Z,35.20
2018-03-18T01:51:21.577Z,35.20
2018-03-18T01:51:53.310Z,35.20
2018-03-18T01:52:25.109Z,35.20
2018-03-18T01:52:57.580Z,35.40
2018-03-18T01:53:29.324Z,35.40
2018-03-18T01:54:01.073Z,35.50
2018-03-18T01:54:32.812Z,35.40
2018-03-18T01:55:04.572Z,35.30
2018-03-18T01:55:36.315Z,35.50
2018-03-18T01:56:08.040Z,35.40
2018-03-18T01:56:39.799Z,35.50
2018-03-18T01:57:11.533Z,35.40
2018-03-18T01:57:43.290Z,35.40
2018-03-18T01:58:15.052Z,35.30
2018-03-18T01:58:46.938Z,35.30
2018-03-18T01:59:18.644Z,35.20
2018-03-18T01:59:50.397Z,35.30
2018-03-18T02:00:22.136Z,35.30
2018-03-18T02:00:53.893Z,35.40
2018-03-18T02:01:25.619Z,35.20
2018-03-18T02:01:57.367Z,35.30
2018-03-18T02:02:29.107Z,35.40
2018-03-18T02:03:00.945Z,35.20
2018-03-18T02:03:32.685Z,35.40
2018-03-18T02:04:04.431Z,35.40
2018-03-18T02:04:36.179Z,35.50
2018-03-18T02:05:07.923Z,35.30
2018-03-18T02:05:39.709Z,35.20
2018-03-18T02:06:12.202Z,35.40
2018-03-18T02:06:43.961Z,35.40
2018-03-18T02:07:15.688Z,35.30
2018-03-18T02:07:47.426Z,35.30
2018-03-18T02:08:19.183Z,35.30
2018-03-18T02:08:50.927Z,35.20
2018-03-18T02:09:23.718Z,35.40
2018-03-18T02:09:56.373Z,35.40
2018-03-18T02:10:28.129Z,35.40
2018-03-18T02:10:59.905Z,35.20
2018-03-18T02:11:31.638Z,35.20
2018-03-18T02:12:03.412Z,35.20
2018-03-18T02:12:36.107Z,35.10
2018-03-18T02:13:07.852Z,35.10
2018-03-18T02:13:39.583Z,35.10
2018-03-18T02:14:11.320Z,35.00
2018-03-18T02:14:43.122Z,35.20
2018-03-18T02:15:15.758Z,35.00
2018-03-18T02:15:47.502Z,35.00
2018-03-18T02:16:19.243Z,34.90
2018-03-18T02:16:50.982Z,35.00
2018-03-18T02:17:22.733Z,35.10
2018-03-18T02:17:54.503Z,35.00
2018-03-18T02:18:26.252Z,35.20
2018-03-18T02:18:57.990Z,35.10
2018-03-18T02:19:29.736Z,35.00
2018-03-18T02:20:01.476Z,35.00
2018-03-18T02:20:33.212Z,35.00
2018-03-18T02:21:04.957Z,35.00
2018-03-18T02:21:36.708Z,35.00
2018-03-18T02:22:08.479Z,35.00
2018-03-18T02:22:40.200Z,35.00
2018-03-18T02:23:11.953Z,35.00
2018-03-18T02:23:43.760Z,35.10
2018-03-18T02:24:15.488Z,34.90
2018-03-18T02:24:47.228Z,34.90
2018-03-18T02:25:19.100Z,35.00
2018-03-18T02:25:51.773Z,34.90
2018-03-18T02:26:23.505Z,34.90
2018-03-18T02:26:55.236Z,34.80
2018-03-18T02:27:26.983Z,34.80
2018-03-18T02:27:58.721Z,34.80
2018-03-18T02:28:30.448Z,35.00
2018-03-18T02:29:03.032Z,35.00
2018-03-18T02:29:34.772Z,35.00
2018-03-18T02:30:06.526Z,34.90
2018-03-18T02:30:38.260Z,34.90
2018-03-18T02:31:10.022Z,35.00
2018-03-18T02:31:41.761Z,35.00
2018-03-18T02:32:13.526Z,35.10
2018-03-18T02:32:45.437Z,35.00
2018-03-18T02:33:17.960Z,35.20
2018-03-18T02:33:49.698Z,35.10
2018-03-18T02:34:21.436Z,35.20
2018-03-18T02:34:53.242Z,35.40
2018-03-18T02:35:25.740Z,35.30
2018-03-18T02:35:57.539Z,35.30
2018-03-18T02:36:30.049Z,35.10
2018-03-18T02:37:01.789Z,35.10
2018-03-18T02:37:33.543Z,35.20
2018-03-18T02:38:05.285Z,35.20
2018-03-18T02:38:37.069Z,35.30
2018-03-18T02:39:08.792Z,35.50
2018-03-18T02:39:40.520Z,35.10
2018-03-18T02:40:12.261Z,35.20
2018-03-18T02:40:44.016Z,35.20
2018-03-18T02:41:15.965Z,35.20
2018-03-18T02:41:47.911Z,35.20
2018-03-18T02:42:19.657Z,35.10
2018-03-18T02:42:51.403Z,35.00
2018-03-18T02:43:23.148Z,35.00
2018-03-18T02:43:54.880Z,35.00
2018-03-18T02:44:26.624Z,35.10
2018-03-18T02:44:58.375Z,35.20
2018-03-18T02:45:30.114Z,35.10
2018-03-18T02:46:01.880Z,35.10
2018-03-18T02:46:33.620Z,35.20
2018-03-18T02:47:05.361Z,35.20
2018-03-18T02:47:37.108Z,35.40
2018-03-18T02:48:08.853Z,35.30
2018-03-18T02:48:40.627Z,35.40
2018-03-18T02:49:12.366Z,35.40
2018-03-18T02:49:44.113Z,35.30
2018-03-18T02:50:15.858Z,35.40
2018-03-18T02:50:47.596Z,35.50
2018-03-18T02:51:19.383Z,35.30
2018-03-18T02:51:51.127Z,35.30
2018-03-18T02:52:23.639Z,35.50
2018-03-18T02:52:55.378Z,35.50
2018-03-18T02:53:27.136Z,35.40
2018-03-18T02:53:58.870Z,35.50
2018-03-18T02:54:30.643Z,35.60
2018-03-18T02:55:02.396Z,35.70
2018-03-18T02:55:34.897Z,35.70
2018-03-18T02:56:06.636Z,35.70
2018-03-18T02:56:38.381Z,35.70
2018-03-18T02:57:10.131Z,35.50
2018-03-18T02:57:41.873Z,35.60
2018-03-18T02:58:13.632Z,35.60
2018-03-18T02:58:45.375Z,35.60
2018-03-18T02:59:17.113Z,35.60
2018-03-18T02:59:48.859Z,35.40
2018-03-18T03:00:20.594Z,35.40
2018-03-18T03:00:52.344Z,35.40
2018-03-18T03:01:24.116Z,35.50
2018-03-18T03:01:55.852Z,35.60
2018-03-18T03:02:27.606Z,35.70
2018-03-18T03:02:59.332Z,35.70
2018-03-18T03:03:31.072Z,35.70
2018-03-18T03:04:02.881Z,35.80
2018-03-18T03:04:35.589Z,35.70
2018-03-18T03:05:07.348Z,35.60
2018-03-18T03:05:39.093Z,35.60
2018-03-18T03:06:11.048Z,35.70
2018-03-18T03:06:42.856Z,35.70
2018-03-18T03:07:14.807Z,35.70
2018-03-18T03:07:46.545Z,35.80
2018-03-18T03:08:18.284Z,35.70
2018-03-18T03:08:50.029Z,35.80
2018-03-18T03:09:21.960Z,35.60
2018-03-18T03:09:54.477Z,35.90
2018-03-18T03:10:26.270Z,35.80
2018-03-18T03:10:58.773Z,35.60
2018-03-18T03:11:30.531Z,36.20
2018-03-18T03:12:02.264Z,35.70
2018-03-18T03:12:34.011Z,35.70
2018-03-18T03:13:05.768Z,35.70
2018-03-18T03:13:37.507Z,35.60
2018-03-18T03:14:09.240Z,35.70
2018-03-18T03:14:41.004Z,35.70
2018-03-18T03:15:12.785Z,35.60
2018-03-18T03:15:45.304Z,35.50
2018-03-18T03:16:17.040Z,35.50
2018-03-18T03:16:48.791Z,35.50
2018-03-18T03:17:20.546Z,35.50
2018-03-18T03:17:53.095Z,35.40
2018-03-18T03:18:24.842Z,35.30
2018-03-18T03:18:56.588Z,35.50
2018-03-18T03:19:28.327Z,35.50
2018-03-18T03:20:00.089Z,35.40
2018-03-18T03:20:31.816Z,35.30
2018-03-18T03:21:03.557Z,35.50
2018-03-18T03:21:35.315Z,35.70
2018-03-18T03:22:07.080Z,35.70
2018-03-18T03:22:38.847Z,35.50
2018-03-18T03:23:11.371Z,36.00
2018-03-18T03:23:43.119Z,35.40
2018-03-18T03:24:14.862Z,35.50
2018-03-18T03:24:46.614Z,35.50
2018-03-18T03:25:18.363Z,35.60
2018-03-18T03:25:50.111Z,35.70
2018-03-18T03:26:21.843Z,35.60
2018-03-18T03:26:53.590Z,35.70
2018-03-18T03:27:25.430Z,35.70
2018-03-18T03:27:57.165Z,35.70
2018-03-18T03:28:28.894Z,35.70
2018-03-18T03:29:00.629Z,35.70
2018-03-18T03:29:32.370Z,35.60
2018-03-18T03:30:04.100Z,35.70
2018-03-18T03:30:35.851Z,35.70
2018-03-18T03:31:07.647Z,35.70
2018-03-18T03:31:39.621Z,35.60
2018-03-18T03:32:11.364Z,35.50
2018-03-18T03:32:43.900Z,35.50
2018-03-18T03:33:15.674Z,35.50
2018-03-18T03:33:47.373Z,35.50
2018-03-18T03:34:19.152Z,35.70
2018-03-18T03:34:51.089Z,35.50
2018-03-18T03:35:22.847Z,35.60
2018-03-18T03:35:54.580Z,35.60
2018-03-18T03:36:26.329Z,35.60
2018-03-18T03:36:58.104Z,35.60
2018-03-18T03:37:31.305Z,35.70
2018-03-18T03:38:03.813Z,35.80
2018-03-18T03:38:35.545Z,35.80
2018-03-18T03:39:07.292Z,35.70
2018-03-18T03:39:39.034Z,35.60
2018-03-18T03:40:10.771Z,35.60
2018-03-18T03:40:42.513Z,35.70
2018-03-18T03:41:14.242Z,35.80
2018-03-18T03:41:45.997Z,35.50
2018-03-18T03:42:17.790Z,35.40
2018-03-18T03:42:49.520Z,35.30
2018-03-18T03:43:21.291Z,35.20
2018-03-18T03:43:53.032Z,35.40
2018-03-18T03:44:24.800Z,35.40
2018-03-18T03:44:56.568Z,35.40
2018-03-18T03:45:28.300Z,35.20
2018-03-18T03:46:00.041Z,35.40
2018-03-18T03:46:32.539Z,35.20
2018-03-18T03:47:04.295Z,35.20
2018-03-18T03:47:36.043Z,35.40
2018-03-18T03:48:07.858Z,35.50
2018-03-18T03:48:39.600Z,35.40
2018-03-18T03:49:11.343Z,35.40
2018-03-18T03:49:43.085Z,35.90
2018-03-18T03:50:14.857Z,35.30
2018-03-18T03:50:46.591Z,35.40
2018-03-18T03:51:18.312Z,35.30
2018-03-18T03:51:50.052Z,35.30
2018-03-18T03:52:21.799Z,35.30
2018-03-18T03:52:54.314Z,35.00
2018-03-18T03:53:26.043Z,35.00
2018-03-18T03:53:57.827Z,35.20
2018-03-18T03:54:29.761Z,35.30
2018-03-18T03:55:01.506Z,35.20
2018-03-18T03:55:33.250Z,35.20
2018-03-18T03:56:04.986Z,35.30
2018-03-18T03:56:36.726Z,35.30
2018-03-18T03:57:08.466Z,35.30
2018-03-18T03:57:40.202Z,35.10
2018-03-18T03:58:11.952Z,35.00
2018-03-18T03:58:43.688Z,35.00
2018-03-18T03:59:15.435Z,35.20
2018-03-18T03:59:47.178Z,35.10
2018-03-18T04:00:18.933Z,35.10
2018-03-18T04:00:50.879Z,35.20
2018-03-18T04:01:22.691Z,35.20
2018-03-18T04:01:54.426Z,35.40
2018-03-18T04:02:26.920Z,35.40
2018-03-18T04:02:58.659Z,35.40
2018-03-18T04:03:30.394Z,35.30
2018-03-18T04:04:02.122Z,35.30
2018-03-18T04:04:33.861Z,35.20
2018-03-18T04:05:06.368Z,35.20
2018-03-18T04:05:38.113Z,35.20
2018-03-18T04:06:09.851Z,35.20
2018-03-18T04:06:41.590Z,35.20
2018-03-18T04:07:13.325Z,35.20
2018-03-18T04:07:45.072Z,35.10
2018-03-18T04:08:16.820Z,35.10
2018-03-18T04:08:48.548Z,35.20
2018-03-18T04:09:20.295Z,35.20
2018-03-18T04:09:52.026Z,35.20
2018-03-18T04:10:23.779Z,35.20
2018-03-18T04:10:55.528Z,35.20
2018-03-18T04:11:27.307Z,35.20
2018-03-18T04:11:59.048Z,35.10
2018-03-18T04:12:30.801Z,35.10
2018-03-18T04:13:02.547Z,35.20
2018-03-18T04:13:34.288Z,35.00
2018-03-18T04:14:06.040Z,34.90
2018-03-18T04:14:37.788Z,35.00
2018-03-18T04:15:09.528Z,35.20
2018-03-18T04:15:41.277Z,35.00
2018-03-18T04:16:13.032Z,34.90
2018-03-18T04:16:44.768Z,35.10
2018-03-18T04:17:16.516Z,35.10
2018-03-18T04:17:48.284Z,34.90
2018-03-18T04:18:20.789Z,35.10
2018-03-18T04:18:52.536Z,35.10
2018-03-18T04:19:24.252Z,35.70
2018-03-18T04:19:56.005Z,35.00
2018-03-18T04:20:27.775Z,35.60
2018-03-18T04:20:59.520Z,35.10
2018-03-18T04:21:31.267Z,35.70
2018-03-18T04:22:03.003Z,35.10
2018-03-18T04:22:34.761Z,35.10
2018-03-18T04:23:06.496Z,35.10
2018-03-18T04:23:38.252Z,35.00
2018-03-18T04:24:09.987Z,35.00
2018-03-18T04:24:41.736Z,35.00
2018-03-18T04:25:13.486Z,34.90
2018-03-18T04:25:45.250Z,34.90
2018-03-18T04:26:16.976Z,35.10
2018-03-18T04:26:48.713Z,35.00
2018-03-18T04:27:20.459Z,35.10
2018-03-18T04:27:52.407Z,35.00
2018-03-18T04:28:24.147Z,35.10
2018-03-18T04:28:55.895Z,35.20
2018-03-18T04:29:27.672Z,35.30
2018-03-18T04:29:59.403Z,35.10
2018-03-18T04:30:31.144Z,34.90
2018-03-18T04:31:02.884Z,34.90
2018-03-18T04:31:34.613Z,35.00
2018-03-18T04:32:06.392Z,35.00
2018-03-18T04:32:38.145Z,34.90
2018-03-18T04:33:10.077Z,34.80
2018-03-18T04:33:41.823Z,34.90
2018-03-18T04:34:13.577Z,34.80
2018-03-18T04:34:45.312Z,34.80
2018-03-18T04:35:17.044Z,34.80
2018-03-18T04:35:48.779Z,34.80
2018-03-18T04:36:20.519Z,34.60
2018-03-18T04:36:52.272Z,34.60
2018-03-18T04:37:24.017Z,34.60
2018-03-18T04:37:55.758Z,34.70
2018-03-18T04:38:27.496Z,34.60
2018-03-18T04:38:59.237Z,34.70
2018-03-18T04:39:30.984Z,34.70
2018-03-18T04:40:02.743Z,34.70
2018-03-18T04:40:34.528Z,34.70
2018-03-18T04:41:06.296Z,34.70
2018-03-18T04:41:38.019Z,34.60
2018-03-18T04:42:09.766Z,34.70
2018-03-18T04:42:41.509Z,34.70
2018-03-18T04:43:14.012Z,34.80
2018-03-18T04:43:45.761Z,34.70
2018-03-18T04:44:17.547Z,34.70
2018-03-18T04:44:49.250Z,34.80
2018-03-18T04:45:21.013Z,35.00
2018-03-18T04:45:52.803Z,35.00
2018-03-18T04:46:24.558Z,35.00
2018-03-18T04:46:56.287Z,34.90
2018-03-18T04:47:28.032Z,35.00
2018-03-18T04:47:59.780Z,34.80
2018-03-18T04:48:31.519Z,34.80
2018-03-18T04:49:03.256Z,34.80
2018-03-18T04:49:35.009Z,34.70
2018-03-18T04:50:06.759Z,34.80
2018-03-18T04:50:38.514Z,34.80
2018-03-18T04:51:10.290Z,34.70
2018-03-18T04:51:42.817Z,34.70
2018-03-18T04:52:14.597Z,34.70
2018-03-18T04:52:46.299Z,34.60
2018-03-18T04:53:18.030Z,34.60
2018-03-18T04:53:50.541Z,34.70
2018-03-18T04:54:22.287Z,34.70
2018-03-18T04:54:54.054Z,34.90
2018-03-18T04:55:25.804Z,34.80
2018-03-18T04:55:57.550Z,34.70
2018-03-18T04:56:29.301Z,34.60
2018-03-18T04:57:01.015Z,34.70
2018-03-18T04:57:32.760Z,34.70
2018-03-18T04:58:04.497Z,34.60
2018-03-18T04:58:36.243Z,34.60
2018-03-18T04:59:07.988Z,34.50
2018-03-18T04:59:39.724Z,34.50
2018-03-18T05:00:11.468Z,34.40
2018-03-18T05:00:43.218Z,34.50
2018-03-18T05:01:14.964Z,34.60
2018-03-18T05:01:46.692Z,34.40
2018-03-18T05:02:18.445Z,34.50
2018-03-18T05:02:50.180Z,34.40
2018-03-18T05:03:21.928Z,34.50
2018-03-18T05:03:53.697Z,34.50
2018-03-18T05:04:25.429Z,34.50
2018-03-18T05:04:57.168Z,34.70
2018-03-18T05:05:28.904Z,34.60
2018-03-18T05:06:00.643Z,34.70
2018-03-18T05:06:32.394Z,34.60
2018-03-18T05:07:04.155Z,34.60
2018-03-18T05:07:35.888Z,34.60
2018-03-18T05:08:07.641Z,34.60
2018-03-18T05:08:39.381Z,34.50
2018-03-18T05:09:11.156Z,34.50
2018-03-18T05:09:42.902Z,34.60
2018-03-18T05:10:14.700Z,34.50
2018-03-18T05:10:46.424Z,34.60
2018-03-18T05:11:18.189Z,34.80
2018-03-18T05:11:49.935Z,34.80
2018-03-18T05:12:21.684Z,34.80
2018-03-18T05:12:53.419Z,34.80
2018-03-18T05:13:25.152Z,34.80
2018-03-18T05:13:56.906Z,34.60
2018-03-18T05:14:28.649Z,34.50
2018-03-18T05:15:00.380Z,34.40
2018-03-18T05:15:32.153Z,34.40
2018-03-18T05:16:03.895Z,34.50
2018-03-18T05:16:35.641Z,34.40
2018-03-18T05:17:07.397Z,34.50
2018-03-18T05:17:39.127Z,35.20
2018-03-18T05:18:10.893Z,34.50
2018-03-18T05:18:42.716Z,34.40
2018-03-18T05:19:15.184Z,34.40
2018-03-18T05:19:46.929Z,34.40
2018-03-18T05:20:18.672Z,34.30
2018-03-18T05:20:50.420Z,34.30
2018-03-18T05:21:22.164Z,34.40
2018-03-18T05:21:53.924Z,34.40
2018-03-18T05:22:25.661Z,34.30
2018-03-18T05:22:57.409Z,34.30
2018-03-18T05:23:29.188Z,34.40
2018-03-18T05:24:01.694Z,34.50
2018-03-18T05:24:33.444Z,34.50
2018-03-18T05:25:05.176Z,34.30
2018-03-18T05:25:36.911Z,34.30
2018-03-18T05:26:08.695Z,34.30
2018-03-18T05:26:40.420Z,34.50
2018-03-18T05:27:12.160Z,34.50
2018-03-18T05:27:43.900Z,34.40
2018-03-18T05:28:15.674Z,34.40
2018-03-18T05:28:47.409Z,34.30
2018-03-18T05:29:19.151Z,34.20
2018-03-18T05:29:50.889Z,34.40
2018-03-18T05:30:22.623Z,34.50
2018-03-18T05:30:54.368Z,34.50
2018-03-18T05:31:26.157Z,34.60
2018-03-18T05:31:57.864Z,34.50
2018-03-18T05:32:29.613Z,34.40
2018-03-18T05:33:01.351Z,34.40
2018-03-18T05:33:33.170Z,34.30
2018-03-18T05:34:04.917Z,34.30
2018-03-18T05:34:36.650Z,34.20
2018-03-18T05:35:09.167Z,34.10
2018-03-18T05:35:40.949Z,34.10
2018-03-18T05:36:13.454Z,33.90
2018-03-18T05:36:45.191Z,33.90
2018-03-18T05:37:16.934Z,34.00
2018-03-18T05:37:48.696Z,33.90
2018-03-18T05:38:20.458Z,34.10
2018-03-18T05:38:52.188Z,34.20
2018-03-18T05:39:23.932Z,34.00
2018-03-18T05:39:55.689Z,34.10
2018-03-18T05:40:27.456Z,34.10
2018-03-18T05:40:59.186Z,34.10
2018-03-18T05:41:31.109Z,34.00
2018-03-18T05:42:02.924Z,34.00
2018-03-18T05:42:34.701Z,34.10
2018-03-18T05:43:06.442Z,34.20
2018-03-18T05:43:38.171Z,34.30
2018-03-18T05:44:09.920Z,34.10
2018-03-18T05:44:41.658Z,34.10
2018-03-18T05:45:13.392Z,34.00
2018-03-18T05:45:45.137Z,34.20
2018-03-18T05:46:17.844Z,34.00
2018-03-18T05:46:49.592Z,34.00
2018-03-18T05:47:21.334Z,34.20
2018-03-18T05:47:53.092Z,34.10
2018-03-18T05:48:25.031Z,34.30
2018-03-18T05:48:56.768Z,34.30
2018-03-18T05:49:28.525Z,34.30
2018-03-18T05:50:00.274Z,34.20
2018-03-18T05:50:32.024Z,34.20
2018-03-18T05:51:03.762Z,34.00
2018-03-18T05:51:35.500Z,34.00
2018-03-18T05:52:07.253Z,34.10
2018-03-18T05:52:38.995Z,34.10
2018-03-18T05:53:10.732Z,34.10
2018-03-18T05:53:42.501Z,34.10
2018-03-18T05:54:14.221Z,34.10
2018-03-18T05:54:45.987Z,34.00
2018-03-18T05:55:17.738Z,33.90
2018-03-18T05:55:49.501Z,34.00
2018-03-18T05:56:21.243Z,34.00
2018-03-18T05:56:53.945Z,33.80
2018-03-18T05:57:25.689Z,33.80
2018-03-18T05:57:57.541Z,33.80
2018-03-18T05:58:29.268Z,34.00
2018-03-18T05:59:01.006Z,33.90
2018-03-18T05:59:32.779Z,33.90
2018-03-18T06:00:04.524Z,33.80
2018-03-18T06:00:36.262Z,33.90
2018-03-18T06:01:08.045Z,33.80
2018-03-18T06:01:39.788Z,33.70
2018-03-18T06:02:11.532Z,33.90
2018-03-18T06:02:43.311Z,33.70
2018-03-18T06:03:15.058Z,33.70
2018-03-18T06:03:46.811Z,33.70
2018-03-18T06:04:18.548Z,33.60
2018-03-18T06:04:50.296Z,33.60
2018-03-18T06:05:22.039Z,33.60
2018-03-18T06:05:53.780Z,33.50
2018-03-18T06:06:25.539Z,33.60
2018-03-18T06:06:57.278Z,33.50
2018-03-18T06:07:29.029Z,33.70
2018-03-18T06:08:00.965Z,33.70
2018-03-18T06:08:32.747Z,33.80
2018-03-18T06:09:04.492Z,33.80
2018-03-18T06:09:36.237Z,33.80
2018-03-18T06:10:08.016Z,33.90
2018-03-18T06:10:40.529Z,33.80
2018-03-18T06:11:12.260Z,33.80
2018-03-18T06:11:43.996Z,33.80
2018-03-18T06:12:15.748Z,33.70
2018-03-18T06:12:47.483Z,33.70
2018-03-18T06:13:19.436Z,33.60
2018-03-18T06:13:52.131Z,33.90
2018-03-18T06:14:23.860Z,33.90
2018-03-18T06:14:55.606Z,33.90
2018-03-18T06:15:27.359Z,33.90
2018-03-18T06:15:59.135Z,33.80
2018-03-18T06:16:31.056Z,33.70
2018-03-18T06:17:02.786Z,33.70
2018-03-18T06:17:34.516Z,33.80
2018-03-18T06:18:06.263Z,33.70
2018-03-18T06:18:38.004Z,33.80
2018-03-18T06:19:09.756Z,33.90
2018-03-18T06:19:41.500Z,33.80
2018-03-18T06:20:13.246Z,33.70
2018-03-18T06:20:44.976Z,33.70
2018-03-18T06:21:16.732Z,33.60
2018-03-18T06:21:48.476Z,33.40
2018-03-18T06:22:20.235Z,33.40
2018-03-18T06:22:51.988Z,33.40
2018-03-18T06:23:23.726Z,33.40
2018-03-18T06:23:55.465Z,33.50
2018-03-18T06:24:27.216Z,33.60
2018-03-18T06:24:59.011Z,33.60
2018-03-18T06:25:30.919Z,33.60
2018-03-18T06:26:02.682Z,33.50
2018-03-18T06:26:34.396Z,33.60
2018-03-18T06:27:06.166Z,33.50
2018-03-18T06:27:37.908Z,33.60
2018-03-18T06:28:09.641Z,33.50
2018-03-18T06:28:41.380Z,33.30
2018-03-18T06:29:13.139Z,33.40
2018-03-18T06:29:44.879Z,33.50
2018-03-18T06:30:16.612Z,33.60
2018-03-18T06:30:48.414Z,33.60
2018-03-18T06:31:20.943Z,33.70
2018-03-18T06:31:52.726Z,33.70
2018-03-18T06:32:24.460Z,33.50
2018-03-18T06:32:56.176Z,33.50
2018-03-18T06:33:27.936Z,33.70
2018-03-18T06:33:59.682Z,33.70
2018-03-18T06:34:31.413Z,33.70
2018-03-18T06:35:03.165Z,33.80
2018-03-18T06:35:34.913Z,33.70
2018-03-18T06:36:06.652Z,33.70
2018-03-18T06:36:38.383Z,33.50
2018-03-18T06:37:10.150Z,33.60
2018-03-18T06:37:41.891Z,33.80
2018-03-18T06:38:13.631Z,33.80
2018-03-18T06:38:45.400Z,33.60
2018-03-18T06:39:17.906Z,33.60
2018-03-18T06:39:49.643Z,33.50
2018-03-18T06:40:21.404Z,33.40
2018-03-18T06:40:53.159Z,33.40
2018-03-18T06:41:24.900Z,33.30
2018-03-18T06:41:56.664Z,33.30
2018-03-18T06:42:28.396Z,33.50
2018-03-18T06:43:00.157Z,33.60
2018-03-18T06:43:31.890Z,33.40
2018-03-18T06:44:03.623Z,33.60
2018-03-18T06:44:35.388Z,34.20
2018-03-18T06:45:07.129Z,33.30
2018-03-18T06:45:38.870Z,34.10
2018-03-18T06:46:10.603Z,33.40
2018-03-18T06:46:42.356Z,33.30
2018-03-18T06:47:14.102Z,33.40
2018-03-18T06:47:45.942Z,33.20
2018-03-18T06:48:17.865Z,33.30
2018-03-18T06:48:49.604Z,33.50
2018-03-18T06:49:21.417Z,33.30
2018-03-18T06:49:53.602Z,33.40